Time;durP1;ratioP1;P1;durP2;ratioP2;P2;SDS_P1;SDS_P2;PMS_P1;PMS_P2;Temp;Humidity;BMP_temperature;BMP_pressure;BME280_temperature;BME280_humidity;BME280_pressure;Samples;Min_cycle;Max_cycle;Signal;HPM_P1;HPM_P2
2023/01/18 00:00:49;;;;;;;51.85;33.10;;;;;;;-3.79;100.00;99029.75;5055792;28;20113;-56
2023/01/18 00:03:15;;;;;;;46.88;30.17;;;;;;;-3.73;100.00;99036.00;5056252;28;20108;-55
2023/01/18 00:05:41;;;;;;;45.95;30.85;;;;;;;-3.70;100.00;99032.81;5056190;28;20033;-56
2023/01/18 00:08:12;;;;;;;38.92;12.27;;;;;;;-3.66;100.00;99032.19;5055816;28;20056;-55
2023/01/18 00:10:38;;;;;;;46.97;30.95;;;;;;;-3.64;100.00;99034.00;5056167;28;20064;-56
2023/01/18 00:13:03;;;;;;;41.17;15.35;;;;;;;-3.58;100.00;99030.09;5055822;28;20107;-56
2023/01/18 00:15:32;;;;;;;43.75;30.17;;;;;;;-3.56;100.00;99028.56;5056040;28;20052;-56
2023/01/18 00:17:57;;;;;;;49.10;31.60;;;;;;;-3.60;100.00;99029.13;5056038;28;20033;-56
2023/01/18 00:20:25;;;;;;;51.83;31.23;;;;;;;-3.78;100.00;99034.88;5055586;28;20033;-56
2023/01/18 00:22:51;;;;;;;51.90;33.88;;;;;;;-3.85;100.00;99035.28;5055929;28;20052;-56
2023/01/18 00:25:18;;;;;;;45.33;31.13;;;;;;;-3.86;100.00;99042.00;5056116;28;20473;-56
2023/01/18 00:27:47;;;;;;;49.75;31.08;;;;;;;-3.98;100.00;99042.16;5055477;28;20024;-56
2023/01/18 00:30:13;;;;;;;49.58;31.98;;;;;;;-4.01;100.00;99034.41;5055893;28;20032;-56
2023/01/18 00:32:38;;;;;;;49.05;32.97;;;;;;;-3.97;100.00;99035.47;5055764;28;20595;-56
2023/01/18 00:35:06;;;;;;;48.22;31.10;;;;;;;-3.99;100.00;99042.94;5055459;28;20108;-56
2023/01/18 00:37:35;;;;;;;55.95;35.80;;;;;;;-4.00;100.00;99045.38;5055419;28;20021;-56
2023/01/18 00:40:01;;;;;;;68.22;42.63;;;;;;;-4.04;100.00;99039.28;5056017;28;20135;-57
2023/01/18 00:45:10;;;;;;;56.10;37.22;;;;;;;-4.05;100.00;99042.56;5056011;28;20040;-57
2023/01/18 00:47:36;;;;;;;38.72;16.77;;;;;;;-4.03;100.00;99046.06;5055551;28;20423;-56
2023/01/18 00:50:01;;;;;;;35.58;15.55;;;;;;;-4.04;100.00;99044.31;5055132;28;20120;-56
2023/01/18 00:52:26;;;;;;;36.17;14.50;;;;;;;-4.02;100.00;99051.94;5055640;28;20021;-56
2023/01/18 00:54:52;;;;;;;50.90;33.35;;;;;;;-4.03;100.00;99041.03;5055465;28;20025;-56
2023/01/18 00:57:17;;;;;;;50.78;32.63;;;;;;;-3.99;100.00;99047.06;5055048;28;20029;-56
2023/01/18 00:59:42;;;;;;;50.72;33.28;;;;;;;-3.95;100.00;99045.63;5055071;28;20067;-57
2023/01/18 01:02:08;;;;;;;53.42;34.05;;;;;;;-3.95;100.00;99045.63;5054901;28;20099;-56
2023/01/18 01:07:17;;;;;;;34.47;15.68;;;;;;;-3.89;100.00;99049.34;5055235;28;20134;-56
2023/01/18 01:09:43;;;;;;;47.20;30.75;;;;;;;-3.82;100.00;99051.44;5054635;28;20068;-56
2023/01/18 01:26:09;;;;;;;31.00;13.45;;;;;;;-3.88;100.00;99060.31;5055621;28;20039;-56
2023/01/18 01:28:39;;;;;;;48.05;31.00;;;;;;;-3.83;100.00;99059.78;5054951;28;20028;-56
2023/01/18 01:31:07;;;;;;;46.38;31.75;;;;;;;-3.90;100.00;99069.41;5054482;28;20067;-56
2023/01/18 01:33:33;;;;;;;;;;;;;;;-3.84;100.00;99068.09;5054937;28;20036;-56
2023/01/18 01:36:00;;;;;;;44.40;30.42;;;;;;;-3.81;100.00;99072.44;5054997;28;19912;-56
2023/01/18 01:38:26;;;;;;;;;;;;;;;-3.83;100.00;99074.88;5054706;28;20384;-56
2023/01/18 01:41:14;;;;;;;53.75;33.63;;;;;;;-3.77;100.00;99070.97;5054344;28;19913;-56
2023/01/18 01:43:48;;;;;;;50.50;32.92;;;;;;;-3.71;100.00;99084.78;5054549;28;20033;-56
2023/01/18 01:46:38;;;;;;;52.70;32.60;;;;;;;-3.79;100.00;99080.97;5054135;28;20029;-56
2023/01/18 01:49:09;;;;;;;56.67;31.48;;;;;;;-3.91;100.00;99086.16;5054611;28;20059;-56
2023/01/18 01:51:38;;;;;;;42.45;14.02;;;;;;;-3.88;100.00;99095.53;5054011;28;20044;-56
2023/01/18 01:54:07;;;;;;;48.92;32.67;;;;;;;-3.92;100.00;99091.09;5054719;28;20025;-56
2023/01/18 01:56:32;;;;;;;53.15;31.95;;;;;;;-3.92;100.00;99088.59;5054132;28;20040;-56
2023/01/18 01:59:01;;;;;;;47.88;32.28;;;;;;;-3.87;100.00;99093.09;5053872;28;20021;-56
2023/01/18 02:01:28;;;;;;;51.65;32.58;;;;;;;-3.87;100.00;99085.56;5054311;28;20036;-56
2023/01/18 02:03:57;;;;;;;45.90;31.00;;;;;;;-3.84;100.00;99097.44;5054496;28;20048;-56
2023/01/18 02:06:30;;;;;;;29.10;13.43;;;;;;;-3.84;100.00;99087.38;5053810;28;20051;-56
2023/01/18 02:08:59;;;;;;;38.28;14.00;;;;;;;-3.82;100.00;99101.78;5053943;28;20056;-56
2023/01/18 02:11:25;;;;;;;45.05;29.33;;;;;;;-3.92;100.00;99094.47;5054139;28;20036;-56
2023/01/18 02:13:51;;;;;;;57.90;35.03;;;;;;;-3.88;100.00;99088.00;5053544;28;20025;-56
2023/01/18 02:16:45;;;;;;;40.63;17.17;;;;;;;-3.84;100.00;99087.38;5054067;28;20021;-56
2023/01/18 02:19:38;;;;;;;56.28;38.45;;;;;;;-3.79;100.00;99091.03;5054076;28;20036;-57
2023/01/18 02:22:31;;;;;;;52.35;32.38;;;;;;;-3.74;100.00;99089.66;5053652;28;20071;-56
2023/01/18 02:25:22;;;;;;;52.95;33.10;;;;;;;-3.74;100.00;99086.28;5054134;28;20029;-56
2023/01/18 02:28:03;;;;;;;52.60;33.15;;;;;;;-3.68;100.00;99095.06;5053032;28;20164;-56
2023/01/18 02:30:33;;;;;;;50.00;32.13;;;;;;;-3.74;100.00;99094.69;5053389;28;20346;-56
2023/01/18 02:33:12;;;;;;;62.20;43.47;;;;;;;-3.79;100.00;99095.22;5053660;28;20484;-56
2023/01/18 02:35:51;;;;;;;52.47;35.25;;;;;;;-3.78;100.00;99097.81;5053052;28;20065;-56
2023/01/18 02:38:25;;;;;;;53.70;32.65;;;;;;;-3.77;100.00;99107.09;5053380;28;20033;-57
2023/01/18 02:41:12;;;;;;;46.28;31.08;;;;;;;-3.77;100.00;99107.09;5052653;28;20499;-56
2023/01/18 02:46:32;;;;;;;71.75;49.55;;;;;;;-3.86;100.00;99109.06;5053791;28;20132;-56
2023/01/18 02:49:00;;;;;;;43.53;18.38;;;;;;;-3.80;100.00;99109.44;5053237;28;20028;-56
2023/01/18 02:51:26;;;;;;;60.83;41.10;;;;;;;-3.82;100.00;99116.03;5053796;28;20098;-56
2023/01/18 02:53:51;;;;;;;47.42;34.72;;;;;;;-3.87;100.00;99115.75;5053251;28;20048;-56
2023/01/18 02:56:37;;;;;;;50.95;32.97;;;;;;;-3.86;100.00;99117.50;5053010;28;20044;-56
2023/01/18 02:59:06;;;;;;;35.85;14.82;;;;;;;-3.82;100.00;99119.41;5053111;28;20021;-56
2023/01/18 03:01:37;;;;;;;49.60;30.88;;;;;;;-3.94;100.00;99118.69;5053013;28;20057;-56
2023/01/18 03:04:09;;;;;;;49.28;32.00;;;;;;;-3.91;100.00;99115.47;5052978;28;20098;-56
2023/01/18 03:06:34;;;;;;;51.65;33.65;;;;;;;-3.92;100.00;99113.75;5052780;28;20063;-56
2023/01/18 03:09:00;;;;;;;60.95;36.30;;;;;;;-3.95;100.00;99116.06;5052571;28;20081;-56
2023/01/18 03:11:36;;;;;;;52.95;34.20;;;;;;;-3.95;100.00;99113.56;5052903;28;20071;-56
2023/01/18 03:14:27;;;;;;;56.95;38.47;;;;;;;-3.91;100.00;99115.47;5053279;28;20104;-56
2023/01/18 03:17:03;;;;;;;52.47;33.72;;;;;;;-3.99;100.00;99115.91;5052672;28;20040;-56
2023/01/18 03:25:23;;;;;;;35.47;14.57;;;;;;;-3.93;100.00;99110.34;5053153;28;20059;-56
2023/01/18 03:36:14;;;;;;;50.10;30.02;;;;;;;-3.95;100.00;99124.50;5053166;28;20519;-56
2023/01/18 03:38:41;;;;;;;49.35;30.60;;;;;;;-3.87;100.00;99117.41;5051877;28;20029;-54
2023/01/18 03:41:08;;;;;;;32.65;13.82;;;;;;;-3.88;100.00;99125.75;5052632;28;20029;-56
2023/01/18 03:43:36;;;;;;;43.38;28.88;;;;;;;-3.87;100.00;99122.44;5052697;28;20025;-56
2023/01/18 03:46:02;;;;;;;;;;;;;;;-3.87;100.00;99122.44;5052854;28;20017;-56
2023/01/18 03:48:28;;;;;;;33.42;11.70;;;;;;;-3.87;100.00;99133.38;5052253;28;19967;-56
2023/01/18 03:51:01;;;;;;;45.85;28.92;;;;;;;-3.90;100.00;99129.81;5052701;28;20495;-56
2023/01/18 03:53:37;;;;;;;46.38;28.88;;;;;;;-4.00;100.00;99134.28;5052214;28;20029;-56
2023/01/18 03:56:26;;;;;;;50.20;29.70;;;;;;;-3.96;100.00;99137.88;5052843;28;20052;-56
2023/01/18 03:58:56;;;;;;;53.58;30.05;;;;;;;-3.95;100.00;99146.28;5051822;28;20029;-56
2023/01/18 04:01:22;;;;;;;46.97;30.67;;;;;;;-3.98;100.00;99152.88;5052608;28;20037;-56
2023/01/18 04:03:48;;;;;;;31.05;12.55;;;;;;;-3.96;100.00;99163.03;5052242;28;20078;-56
2023/01/18 04:06:13;;;;;;;29.92;13.55;;;;;;;-4.00;100.00;99158.59;5052197;28;20025;-56
2023/01/18 04:08:38;;;;;;;48.58;30.45;;;;;;;-4.08;100.00;99160.66;5051866;28;20384;-56
2023/01/18 04:11:04;;;;;;;47.13;30.95;;;;;;;-4.11;100.00;99162.13;5052563;28;20061;-56
2023/01/18 04:13:29;;;;;;;52.17;31.15;;;;;;;-4.11;100.00;99162.97;5051718;28;20088;-56
2023/01/18 04:15:54;;;;;;;52.10;30.52;;;;;;;-4.16;100.00;99169.38;5052253;28;20100;-56
2023/01/18 04:18:19;;;;;;;51.25;32.67;;;;;;;-4.18;100.00;99175.97;5052335;28;20021;-56
2023/01/18 04:20:45;;;;;;;58.08;32.55;;;;;;;-4.21;100.00;99171.63;5051446;28;20033;-56
2023/01/18 04:23:10;;;;;;;33.60;12.60;;;;;;;-4.16;100.00;99174.41;5052305;28;20056;-56
2023/01/18 04:25:37;;;;;;;45.20;30.60;;;;;;;-4.24;100.00;99170.56;5052186;28;20021;-56
2023/01/18 04:28:02;;;;;;;47.50;32.93;;;;;;;-4.23;100.00;99178.19;5051851;28;20036;-55
2023/01/18 04:30:28;;;;;;;49.10;32.45;;;;;;;-4.18;100.00;99175.97;5051900;28;20021;-56
2023/01/18 04:32:53;;;;;;;37.97;14.57;;;;;;;-4.16;100.00;99174.41;5052141;28;20104;-56
2023/01/18 04:35:18;;;;;;;31.20;14.93;;;;;;;-4.16;100.00;99172.78;5051955;28;20021;-56
2023/01/18 04:37:50;;;;;;;54.70;32.60;;;;;;;-4.23;100.00;99173.16;5051933;28;20045;-56
2023/01/18 04:40:15;;;;;;;52.92;35.13;;;;;;;-4.22;100.00;99174.03;5051690;28;20033;-57
2023/01/18 04:42:41;;;;;;;51.85;33.90;;;;;;;-4.21;100.00;99180.78;5051713;28;20025;-56
2023/01/18 04:45:07;;;;;;;54.47;34.08;;;;;;;-4.23;100.00;99178.19;5054168;28;20045;-56
2023/01/18 04:47:32;;;;;;;50.92;33.65;;;;;;;-4.33;100.00;99176.75;5054923;28;20029;-56
2023/01/18 04:49:57;;;;;;;55.28;33.38;;;;;;;-4.25;100.00;99184.75;5055672;28;20025;-56
2023/01/18 04:52:25;;;;;;;52.08;33.38;;;;;;;-4.28;100.00;99184.59;5055632;28;20048;-56
2023/01/18 04:54:50;;;;;;;;;;;;;;;-4.20;100.00;99180.88;5055457;28;20107;-56
2023/01/18 04:57:15;;;;;;;53.63;34.92;;;;;;;-4.20;100.00;99182.53;5055520;28;20047;-56
2023/01/18 04:59:44;;;;;;;36.65;15.25;;;;;;;-4.16;100.00;99194.53;5055376;28;20082;-56
2023/01/18 05:02:10;;;;;;;39.30;17.23;;;;;;;-4.16;100.00;99192.00;5055227;28;20033;-56
2023/01/18 05:04:35;;;;;;;51.88;35.17;;;;;;;-4.24;100.00;99194.06;5055218;28;20036;-56
2023/01/18 05:07:01;;;;;;;53.33;34.47;;;;;;;-4.20;100.00;99198.50;5055334;28;20025;-57
2023/01/18 05:09:26;;;;;;;56.85;36.60;;;;;;;-4.21;100.00;99201.81;5054805;28;20029;-56
2023/01/18 05:11:51;;;;;;;55.40;36.53;;;;;;;-4.18;100.00;99201.13;5054791;28;20483;-56
2023/01/18 05:14:16;;;;;;;61.08;37.33;;;;;;;-4.19;100.00;99202.75;5055302;28;20024;-56
2023/01/18 05:16:42;;;;;;;38.20;17.25;;;;;;;-4.14;100.00;99208.09;5054335;28;20033;-56
2023/01/18 05:19:07;;;;;;;52.30;35.47;;;;;;;-4.10;100.00;99211.66;5055193;28;20025;-56
2023/01/18 05:21:32;;;;;;;54.28;36.53;;;;;;;-4.08;100.00;99208.47;5054909;28;20029;-56
2023/01/18 05:23:58;;;;;;;52.67;36.15;;;;;;;-4.09;100.00;99210.84;5054604;28;20021;-56
2023/01/18 05:26:23;;;;;;;61.92;37.90;;;;;;;-4.05;100.00;99212.81;5055007;28;20043;-56
2023/01/18 05:28:49;;;;;;;57.38;36.72;;;;;;;-4.09;100.00;99215.88;5054808;28;20028;-56
2023/01/18 05:31:17;;;;;;;55.13;36.85;;;;;;;-4.04;100.00;99220.44;5054407;28;20460;-56
2023/01/18 05:33:42;;;;;;;55.63;37.00;;;;;;;-4.04;100.00;99229.63;5054416;28;20526;-56
2023/01/18 05:36:08;;;;;;;33.45;15.15;;;;;;;-3.99;100.00;99228.25;5054818;28;20036;-56
2023/01/18 05:38:33;;;;;;;47.13;16.67;;;;;;;-3.98;100.00;99230.00;5054066;28;20468;-56
2023/01/18 05:40:58;;;;;;;56.38;37.33;;;;;;;-4.02;100.00;99228.94;5054593;28;20055;-56
2023/01/18 05:43:27;;;;;;;64.57;37.40;;;;;;;-4.05;100.00;99228.78;5054926;28;20036;-56
2023/01/18 05:45:52;;;;;;;55.17;36.45;;;;;;;-4.09;100.00;99226.84;5054167;28;20029;-56
2023/01/18 05:48:18;;;;;;;53.95;35.83;;;;;;;-4.09;100.00;99234.41;5054778;28;20025;-56
2023/01/18 05:50:45;;;;;;;34.50;16.27;;;;;;;-4.05;100.00;99228.78;5053741;28;20060;-56
2023/01/18 05:53:12;;;;;;;52.65;36.65;;;;;;;-4.10;100.00;99236.81;5054502;28;20029;-56
2023/01/18 05:55:38;;;;;;;57.80;37.78;;;;;;;-4.10;100.00;99244.38;5053615;28;20369;-56
2023/01/18 05:58:04;;;;;;;64.60;38.67;;;;;;;-4.08;100.00;99248.72;5053896;28;20477;-56
2023/01/18 06:00:29;;;;;;;59.90;38.20;;;;;;;-4.10;100.00;99249.41;5053746;28;20438;-56
2023/01/18 06:02:54;;;;;;;59.80;38.45;;;;;;;-4.09;100.00;99251.13;5054561;28;20048;-55
2023/01/18 06:05:21;;;;;;;58.78;39.25;;;;;;;-4.09;100.00;99239.44;5053968;28;20029;-56
2023/01/18 06:07:46;;;;;;;63.72;39.45;;;;;;;-4.09;100.00;99241.06;5053668;28;20037;-56
2023/01/18 06:10:13;;;;;;;65.70;39.67;;;;;;;-4.08;100.00;99251.25;5054361;28;20021;-56
2023/01/18 06:12:38;;;;;;;59.25;39.13;;;;;;;-4.10;100.00;99255.28;5053464;28;20040;-56
2023/01/18 06:15:04;;;;;;;43.28;17.75;;;;;;;-4.05;100.00;99258.97;5053903;28;20389;-56
2023/01/18 06:17:30;;;;;;;38.08;17.17;;;;;;;-4.04;100.00;99265.75;5054000;28;20021;-56
2023/01/18 06:19:56;;;;;;;44.65;19.65;;;;;;;-4.04;100.00;99267.38;5053617;28;20419;-56
2023/01/18 06:22:21;;;;;;;61.92;40.45;;;;;;;-4.11;100.00;99268.63;5053885;28;20449;-56
2023/01/18 06:24:46;;;;;;;69.75;43.00;;;;;;;-4.12;100.00;99276.97;5053755;28;20613;-56
2023/01/18 06:27:11;;;;;;;45.38;19.77;;;;;;;-4.08;100.00;99281.44;5053492;28;20104;-56
2023/01/18 06:29:37;;;;;;;67.45;43.30;;;;;;;-4.10;100.00;99277.94;5053276;28;20052;-56
2023/01/18 06:32:02;;;;;;;68.57;42.67;;;;;;;-4.10;100.00;99275.41;5054012;28;20465;-55
2023/01/18 06:34:28;;;;;;;66.07;41.90;;;;;;;-4.12;100.00;99287.03;5053140;28;20031;-56
2023/01/18 06:36:53;;;;;;;66.38;43.58;;;;;;;-4.12;100.00;99289.53;5053697;28;20029;-56
2023/01/18 06:39:18;;;;;;;43.30;19.38;;;;;;;-4.07;100.00;99294.88;5053772;28;20092;-56
2023/01/18 06:41:44;;;;;;;59.88;41.42;;;;;;;-4.16;100.00;99291.03;5052859;28;20029;-56
2023/01/18 06:44:09;;;;;;;64.15;42.65;;;;;;;-4.18;100.00;99297.59;5053361;28;20028;-56
2023/01/18 06:46:34;;;;;;;67.53;43.05;;;;;;;-4.22;100.00;99287.22;5053388;28;20470;-56
2023/01/18 06:48:59;;;;;;;68.97;44.15;;;;;;;-4.17;100.00;99300.97;5052879;28;20021;-56
2023/01/18 06:51:25;;;;;;;76.30;43.78;;;;;;;-4.19;100.00;99310.06;5053376;28;20139;-56
2023/01/18 06:53:50;;;;;;;71.65;46.00;;;;;;;-4.18;100.00;99311.81;5052748;28;20033;-56
2023/01/18 06:56:15;;;;;;;68.90;43.97;;;;;;;-4.20;100.00;99315.88;5053150;28;20479;-55
2023/01/18 06:58:41;;;;;;;69.50;43.45;;;;;;;-4.19;100.00;99321.00;5053197;28;20017;-56
2023/01/18 07:01:06;;;;;;;71.30;46.67;;;;;;;-4.12;100.00;99322.25;5052927;28;20032;-56
2023/01/18 07:03:32;;;;;;;70.55;45.15;;;;;;;-4.18;100.00;99326.91;5052900;28;20025;-56
2023/01/18 07:06:00;;;;;;;65.80;43.45;;;;;;;-4.19;100.00;99332.72;5053337;28;20021;-56
2023/01/18 07:08:26;;;;;;;73.10;44.58;;;;;;;-4.19;100.00;99350.31;5052379;28;20076;-56
2023/01/18 07:10:52;;;;;;;53.22;20.08;;;;;;;-4.13;100.00;99348.22;5052786;28;20036;-56
2023/01/18 07:13:19;;;;;;;46.50;20.55;;;;;;;-4.14;100.00;99343.94;5053108;28;20048;-56
2023/01/18 07:15:44;;;;;;;68.88;44.28;;;;;;;-4.19;100.00;99342.78;5052424;28;20029;-56
2023/01/18 07:18:11;;;;;;;66.75;44.03;;;;;;;-4.24;100.00;99341.63;5052945;28;20051;-56
2023/01/18 07:20:36;;;;;;;66.25;45.53;;;;;;;-4.20;100.00;99346.91;5052718;28;20115;-56
2023/01/18 07:23:03;;;;;;;65.53;43.40;;;;;;;-4.17;100.00;99346.25;5052502;28;20131;-56
2023/01/18 07:25:29;;;;;;;34.70;15.93;;;;;;;-4.12;100.00;99344.88;5052464;28;20033;-56
2023/01/18 07:27:57;;;;;;;63.80;44.15;;;;;;;-4.16;100.00;99353.91;5052744;28;20017;-56
2023/01/18 07:30:22;;;;;;;45.85;22.23;;;;;;;-4.10;100.00;99355.06;5052211;28;20480;-55
2023/01/18 07:32:50;;;;;;;65.32;42.67;;;;;;;-4.14;100.00;99351.50;5052511;28;20037;-56
2023/01/18 07:35:17;;;;;;;67.57;44.38;;;;;;;-4.15;100.00;99357.28;5052977;28;20051;-56
2023/01/18 07:37:47;;;;;;;66.80;43.45;;;;;;;-4.15;100.00;99357.28;5052074;28;20452;-55
2023/01/18 07:40:14;;;;;;;40.78;17.33;;;;;;;-4.08;100.00;99363.56;5052430;28;20029;-56
2023/01/18 07:42:39;;;;;;;65.25;43.70;;;;;;;-4.09;100.00;99361.81;5052643;28;20032;-56
2023/01/18 07:45:07;;;;;;;61.97;42.95;;;;;;;-4.09;100.00;99357.69;5052125;28;20465;-56
2023/01/18 07:47:33;;;;;;;50.38;20.98;;;;;;;-4.07;100.00;99366.19;5052495;28;20025;-56
2023/01/18 07:49:58;;;;;;;69.30;44.33;;;;;;;-4.10;100.00;99366.00;5052659;28;20025;-56
2023/01/18 07:52:23;;;;;;;39.03;19.52;;;;;;;-4.06;100.00;99372.97;5051946;28;20033;-55
2023/01/18 07:54:49;;;;;;;74.65;42.83;;;;;;;-4.10;100.00;99381.09;5052193;28;20048;-56
2023/01/18 07:57:15;;;;;;;64.28;45.10;;;;;;;-4.16;100.00;99376.56;5052322;28;20460;-56
2023/01/18 07:59:40;;;;;;;71.82;45.65;;;;;;;-4.11;100.00;99366.78;5052167;28;20028;-55
2023/01/18 08:02:07;;;;;;;62.67;43.45;;;;;;;-4.05;100.00;99376.38;5052318;28;20057;-55
2023/01/18 08:04:32;;;;;;;64.22;42.85;;;;;;;-4.05;100.00;99374.72;5051916;28;20032;-55
2023/01/18 08:06:58;;;;;;;39.05;17.42;;;;;;;-3.98;100.00;99386.94;5052121;28;20372;-56
2023/01/18 08:09:23;;;;;;;56.45;20.70;;;;;;;-3.95;100.00;99390.41;5052476;28;20484;-55
2023/01/18 08:11:48;;;;;;;62.53;40.72;;;;;;;-3.96;100.00;99392.06;5051524;28;20025;-55
2023/01/18 08:14:13;;;;;;;46.17;20.73;;;;;;;-3.91;100.00;99399.88;5052442;28;20025;-55
2023/01/18 08:16:39;;;;;;;91.80;66.03;;;;;;;-3.93;100.00;99406.47;5052321;28;20078;-54
2023/01/18 08:19:04;;;;;;;40.17;18.77;;;;;;;-3.87;100.00;99404.34;5052378;28;20032;-56
2023/01/18 08:21:30;;;;;;;65.00;41.15;;;;;;;-3.87;100.00;99405.22;5055754;28;20074;-56
2023/01/18 08:23:55;;;;;;;66.30;44.70;;;;;;;-3.85;100.00;99405.31;5056265;28;20059;-56
2023/01/18 08:26:21;;;;;;;56.25;40.58;;;;;;;-3.80;100.00;99403.94;5055596;28;20063;-56
2023/01/18 08:28:46;;;;;;;63.95;42.70;;;;;;;-3.79;100.00;99409.88;5056012;28;20924;-56
2023/01/18 08:31:17;;;;;;;61.40;42.80;;;;;;;-3.77;100.00;99405.78;5056276;28;20364;-55
2023/01/18 08:33:45;;;;;;;53.95;24.83;;;;;;;-3.70;100.00;99408.78;5055454;28;20036;-56
2023/01/18 08:36:13;;;;;;;69.53;43.58;;;;;;;-3.68;100.00;99419.84;5056042;28;20029;-56
2023/01/18 08:38:39;;;;;;;68.18;44.60;;;;;;;-3.67;100.00;99413.16;5055450;28;20435;-56
2023/01/18 08:41:04;;;;;;;65.40;44.22;;;;;;;-3.62;100.00;99431.09;5054964;28;20166;-55
2023/01/18 08:43:29;;;;;;;70.78;44.22;;;;;;;-3.59;100.00;99427.13;5055706;28;20086;-56
2023/01/18 08:45:55;;;;;;;165.98;90.30;;;;;;;-3.57;100.00;99424.69;5056011;28;20028;-55
2023/01/18 08:48:20;;;;;;;115.50;63.15;;;;;;;-3.56;100.00;99434.00;5055111;28;20028;-54
2023/01/18 08:50:45;;;;;;;123.15;64.85;;;;;;;-3.55;100.00;99448.31;5055578;28;20119;-55
2023/01/18 08:53:12;;;;;;;75.05;24.35;;;;;;;-3.49;100.00;99441.13;5055746;28;20096;-56
2023/01/18 08:55:39;;;;;;;114.65;65.72;;;;;;;-3.48;100.00;99446.25;5054525;28;20472;-56
2023/01/18 08:58:05;;;;;;;64.25;25.05;;;;;;;-3.41;100.00;99452.56;5055745;28;20043;-55
2023/01/18 09:00:30;;;;;;;85.43;50.78;;;;;;;-3.38;100.00;99451.88;5054787;28;20528;-56
2023/01/18 09:02:56;;;;;;;114.82;63.50;;;;;;;-3.35;100.00;99452.94;5055364;28;20461;-55
2023/01/18 09:05:23;;;;;;;78.15;29.20;;;;;;;-3.29;100.00;99454.09;5055453;28;20025;-54
2023/01/18 09:07:49;;;;;;;77.03;46.53;;;;;;;-3.24;100.00;99450.22;5054590;28;20052;-54
2023/01/18 09:10:15;;;;;;;98.25;53.70;;;;;;;-3.26;100.00;99457.69;5055348;28;20292;-55
2023/01/18 09:12:41;;;;;;;102.88;55.75;;;;;;;-3.18;100.00;99463.19;5055263;28;20021;-55
2023/01/18 09:15:07;;;;;;;60.10;24.17;;;;;;;-3.12;100.00;99470.25;5054955;28;20120;-54
2023/01/18 09:17:32;;;;;;;87.10;51.13;;;;;;;-3.04;100.00;99467.44;5054818;28;20028;-56
2023/01/18 09:19:58;;;;;;;88.47;50.90;;;;;;;-2.98;100.00;99467.81;5055187;28;20025;-56
2023/01/18 09:22:23;;;;;;;48.53;21.45;;;;;;;-2.91;100.00;99470.72;5054652;28;20075;-55
2023/01/18 09:24:49;;;;;;;59.05;38.00;;;;;;;-2.78;100.00;99478.22;5054734;28;20441;-52
2023/01/18 09:27:15;;;;;;;60.67;39.90;;;;;;;-2.70;100.00;99484.63;5054981;28;20459;-54
2023/01/18 09:29:40;;;;;;;74.25;45.45;;;;;;;-2.63;100.00;99490.03;5054311;28;20112;-55
2023/01/18 09:32:07;;;;;;;74.57;46.20;;;;;;;-2.57;100.00;99485.34;5053431;28;20021;-55
2023/01/18 09:34:33;;;;;;;72.43;42.75;;;;;;;-2.52;100.00;99492.44;5054650;28;20100;-55
2023/01/18 09:36:59;;;;;;;59.80;40.72;;;;;;;-2.45;100.00;99498.72;5054321;28;20112;-54
2023/01/18 09:39:24;;;;;;;63.83;42.70;;;;;;;-2.36;100.00;99498.41;5054815;28;20116;-54
2023/01/18 09:41:53;;;;;;;64.47;40.72;;;;;;;-2.30;100.00;99500.38;5054428;28;20447;-55
2023/01/18 09:44:34;;;;;;;43.78;19.73;;;;;;;-2.19;100.00;99506.94;5054090;28;20174;-55
2023/01/18 09:47:17;;;;;;;70.82;44.65;;;;;;;-2.11;100.00;99510.78;5054737;28;20028;-55
2023/01/18 09:49:53;;;;;;;66.72;42.63;;;;;;;-2.02;100.00;99513.84;5054048;28;20037;-55
2023/01/18 09:52:31;;;;;;;61.55;39.80;;;;;;;-1.91;100.00;99511.94;5054396;28;20377;-55
2023/01/18 09:55:12;;;;;;;78.47;54.13;;;;;;;-1.79;100.00;99519.34;5054769;28;20055;-55
2023/01/18 09:57:49;;;;;;;66.22;41.30;;;;;;;-1.59;100.00;99515.41;5053788;28;20036;-54
2023/01/18 10:00:20;;;;;;;46.53;20.80;;;;;;;-1.47;100.00;99515.25;5054441;28;20033;-54
2023/01/18 10:02:48;;;;;;;56.28;37.22;;;;;;;-1.20;100.00;99517.56;5054331;28;20035;-54
2023/01/18 10:05:21;;;;;;;64.00;40.92;;;;;;;-1.04;100.00;99524.34;5053915;28;20032;-55
2023/01/18 10:08:01;;;;;;;57.08;37.78;;;;;;;-0.85;100.00;99527.06;5053848;28;20056;-55
2023/01/18 10:10:30;;;;;;;50.63;32.50;;;;;;;-0.68;100.00;99533.03;5054143;28;20061;-55
2023/01/18 10:13:26;;;;;;;46.75;32.00;;;;;;;-0.51;100.00;99533.91;5053503;28;20075;-55
2023/01/18 10:15:52;;;;;;;51.47;32.40;;;;;;;-0.32;100.00;99534.00;5054075;28;20035;-56
2023/01/18 10:18:18;;;;;;;49.08;32.00;;;;;;;-0.15;100.00;99533.22;5053771;28;20017;-56
2023/01/18 10:20:54;;;;;;;44.15;30.02;;;;;;;-0.02;100.00;99524.59;5053452;28;20052;-54
2023/01/18 10:23:22;;;;;;;48.03;32.13;;;;;;;0.05;99.97;99530.81;5054178;28;20021;-52
2023/01/18 10:26:08;;;;;;;44.72;31.02;;;;;;;0.21;99.31;99530.81;5053078;28;20393;-54
2023/01/18 10:28:49;;;;;;;49.22;31.73;;;;;;;0.34;99.32;99529.75;5053434;28;20025;-55
2023/01/18 10:31:39;;;;;;;47.97;30.40;;;;;;;0.48;98.50;99525.34;5053750;28;20025;-55
2023/01/18 10:34:15;;;;;;;47.78;33.58;;;;;;;0.68;99.17;99525.44;5053177;28;20024;-56
2023/01/18 10:36:46;;;;;;;40.85;27.65;;;;;;;0.70;96.85;99528.91;5053511;28;20036;-56
2023/01/18 10:39:34;;;;;;;42.78;27.38;;;;;;;0.74;97.38;99525.75;5053426;28;20021;-56
2023/01/18 10:42:03;;;;;;;43.72;27.63;;;;;;;0.81;96.65;99520.16;5053174;28;20032;-56
2023/01/18 10:44:30;;;;;;;40.88;27.13;;;;;;;0.81;95.82;99527.75;5053284;28;20473;-56
2023/01/18 10:46:57;;;;;;;47.50;27.80;;;;;;;0.86;95.80;99525.44;5053181;28;20107;-56
2023/01/18 10:49:42;;;;;;;40.03;26.67;;;;;;;1.04;95.99;99525.44;5053395;28;20025;-56
2023/01/18 10:52:17;;;;;;;42.03;26.08;;;;;;;1.11;95.36;99529.97;5053496;28;20021;-56
2023/01/18 10:54:50;;;;;;;48.13;27.35;;;;;;;1.30;94.18;99524.09;5052766;28;20029;-56
2023/01/18 10:57:24;;;;;;;43.42;27.08;;;;;;;1.27;91.96;99527.34;5053475;28;20024;-55
2023/01/18 10:59:52;;;;;;;40.45;27.30;;;;;;;1.45;93.61;99534.06;5052979;28;20423;-55
2023/01/18 11:02:26;;;;;;;43.38;27.92;;;;;;;1.71;91.67;99536.91;5052367;28;20476;-56
2023/01/18 11:05:32;;;;;;;38.60;26.10;;;;;;;1.85;92.48;99535.81;5053202;28;20021;-56
2023/01/18 11:08:30;;;;;;;42.75;25.52;;;;;;;2.11;91.43;99533.53;5049237;28;20048;-56
2023/01/18 11:11:03;;;;;;;41.42;25.42;;;;;;;2.23;88.59;99539.13;5053413;28;20032;-56
2023/01/18 11:13:45;;;;;;;37.53;23.60;;;;;;;2.19;87.30;99541.47;5052995;28;20035;-57
2023/01/18 11:16:14;;;;;;;37.85;22.88;;;;;;;2.41;87.91;99549.19;5052557;28;20056;-56
2023/01/18 11:19:03;;;;;;;34.67;22.98;;;;;;;2.70;88.56;99554.59;5052905;28;20025;-56
2023/01/18 11:21:49;;;;;;;66.63;35.67;;;;;;;2.79;86.66;99546.47;5052326;28;20128;-56
2023/01/18 11:24:27;;;;;;;43.13;25.90;;;;;;;2.78;86.22;99548.13;5052928;28;20035;-56
2023/01/18 11:26:58;;;;;;;63.22;36.22;;;;;;;2.73;83.76;99536.91;5053008;28;20017;-56
2023/01/18 11:29:42;;;;;;;40.13;23.88;;;;;;;2.99;85.88;99533.66;5052322;28;20104;-56
2023/01/18 11:32:20;;;;;;;77.18;43.17;;;;;;;3.08;83.90;99536.56;5053003;28;20082;-56
2023/01/18 11:34:50;;;;;;;44.47;23.75;;;;;;;3.07;82.79;99534.81;5052800;28;20024;-56
2023/01/18 11:37:44;;;;;;;55.65;29.98;;;;;;;3.35;84.47;99535.88;5052212;28;20082;-56
2023/01/18 11:40:25;;;;;;;43.17;24.45;;;;;;;3.24;82.36;99527.81;5051914;28;20064;-56
2023/01/18 11:42:57;;;;;;;40.35;24.02;;;;;;;3.07;83.11;99543.34;5052142;28;20059;-56
2023/01/18 11:45:34;;;;;;;125.38;61.92;;;;;;;3.00;82.25;99538.81;5052688;28;20033;-56
2023/01/18 11:48:10;;;;;;;46.03;27.00;;;;;;;2.89;82.75;99542.59;5052764;28;20082;-56
2023/01/18 11:50:46;;;;;;;56.15;30.60;;;;;;;2.83;83.88;99540.69;5051930;28;20104;-56
2023/01/18 11:53:37;;;;;;;44.75;26.02;;;;;;;2.90;85.31;99545.19;5053084;28;20460;-56
2023/01/18 11:56:13;;;;;;;35.85;22.38;;;;;;;2.75;83.85;99544.59;5056549;28;20025;-56
2023/01/18 11:58:40;;;;;;;34.60;22.15;;;;;;;2.61;85.13;99537.28;5056196;28;20023;-56